createdAt,value
2023-02-23T00:00:28.372Z,7.88
2023-02-23T00:05:35.857Z,7.85
2023-02-23T00:10:39.067Z,7.79
2023-02-23T00:15:40.990Z,7.76
2023-02-23T00:20:48.553Z,7.72
2023-02-23T00:25:50.376Z,7.71
2023-02-23T00:30:52.615Z,7.69
2023-02-23T00:35:55.603Z,7.67
2023-02-23T00:40:57.395Z,7.65
2023-02-23T00:45:59.262Z,7.66
2023-02-23T00:51:05.946Z,7.66
2023-02-23T00:56:12.127Z,7.64
2023-02-23T01:01:15.142Z,7.64
2023-02-23T01:06:17.939Z,7.64
2023-02-23T01:11:23.177Z,7.62
2023-02-23T01:16:28.420Z,7.62
2023-02-23T01:21:33.098Z,7.63
2023-02-23T01:26:38.054Z,7.61
2023-02-23T01:31:43.478Z,7.61
2023-02-23T01:36:45.624Z,7.60
2023-02-23T01:41:48.669Z,7.61
2023-02-23T01:46:50.675Z,7.62
2023-02-23T01:52:15.994Z,7.62
2023-02-23T01:57:22.247Z,7.62
2023-02-23T02:02:33.526Z,7.63
2023-02-23T02:07:39.742Z,7.64
2023-02-23T02:12:44.924Z,7.66
2023-02-23T02:18:09.571Z,7.67
2023-02-23T02:23:42.341Z,7.67
2023-02-23T02:28:59.694Z,7.66
2023-02-23T02:34:02.648Z,7.67
2023-02-23T02:39:35.977Z,7.68
2023-02-23T02:45:07.763Z,7.69
2023-02-23T02:50:24.879Z,7.71
2023-02-23T02:55:34.139Z,7.72
2023-02-23T03:00:56.194Z,7.70
2023-02-23T03:06:17.887Z,7.68
2023-02-23T03:11:38.197Z,7.68
2023-02-23T03:17:23.491Z,7.65
2023-02-23T03:22:53.436Z,7.61
2023-02-23T03:28:43.391Z,7.59
2023-02-23T03:34:15.034Z,7.60
2023-02-23T03:39:49.833Z,7.60
2023-02-23T03:45:13.132Z,7.57
2023-02-23T03:50:40.521Z,7.57
2023-02-23T03:56:06.267Z,7.60
2023-02-23T04:01:29.015Z,7.65
2023-02-23T04:06:54.495Z,7.66
2023-02-23T04:12:30.177Z,7.66
2023-02-23T04:17:32.939Z,7.69
2023-02-23T04:22:35.630Z,7.72
2023-02-23T04:27:37.574Z,7.71
2023-02-23T04:32:39.422Z,7.73
2023-02-23T04:37:41.535Z,7.72
2023-02-23T04:42:43.441Z,7.73
2023-02-23T04:47:45.789Z,7.74
2023-02-23T04:52:47.852Z,7.76
2023-02-23T04:57:49.832Z,7.73
2023-02-23T05:02:51.732Z,7.70
2023-02-23T05:07:55.163Z,7.65
2023-02-23T05:12:58.417Z,7.60
2023-02-23T05:18:00.440Z,7.53
2023-02-23T05:23:02.338Z,7.39
2023-02-23T05:28:04.888Z,7.33
2023-02-23T05:33:06.754Z,7.30
2023-02-23T05:38:08.597Z,7.25
2023-02-23T05:43:10.554Z,7.23
2023-02-23T05:48:13.658Z,7.22
2023-02-23T05:53:15.613Z,7.19
2023-02-23T05:58:17.428Z,7.15
2023-02-23T06:03:19.538Z,7.11
2023-02-23T06:08:21.895Z,7.07
2023-02-23T06:13:23.933Z,7.04
2023-02-23T06:18:27.267Z,7.00
2023-02-23T06:23:30.370Z,7.01
2023-02-23T06:28:32.402Z,7.02
2023-02-23T06:33:34.291Z,7.05
2023-02-23T06:38:37.624Z,7.08
2023-02-23T06:43:39.700Z,7.14
2023-02-23T06:48:41.574Z,7.22
2023-02-23T06:53:43.324Z,7.30
2023-02-23T06:58:46.751Z,7.38
2023-02-23T07:03:48.811Z,7.45
2023-02-23T07:08:50.711Z,7.52
2023-02-23T07:13:52.647Z,7.59
2023-02-23T07:18:55.707Z,7.68
2023-02-23T07:23:58.339Z,7.75
2023-02-23T07:29:00.767Z,7.85
2023-02-23T07:34:02.669Z,7.95
2023-02-23T07:39:05.251Z,8.09
2023-02-23T07:44:07.347Z,8.20
2023-02-23T07:49:09.547Z,8.29
2023-02-23T07:54:11.473Z,8.34
2023-02-23T08:00:37.162Z,8.33
2023-02-23T08:05:40.147Z,8.36
2023-02-23T08:10:42.252Z,8.43
2023-02-23T08:15:44.236Z,8.48
2023-02-23T08:20:47.025Z,8.49
2023-02-23T08:25:49.133Z,8.51
2023-02-23T08:30:51.066Z,8.53
2023-02-23T08:35:53.737Z,8.59
2023-02-23T08:40:55.570Z,8.62
2023-02-23T08:45:57.738Z,8.70
2023-02-23T08:51:00.051Z,8.76
2023-02-23T08:56:06.154Z,8.84
2023-02-23T09:01:08.641Z,8.86
2023-02-23T09:06:15.394Z,8.85
2023-02-23T09:11:17.868Z,8.91
2023-02-23T09:16:20.467Z,8.99
2023-02-23T09:21:25.506Z,9.04
2023-02-23T09:26:29.593Z,9.14
2023-02-23T09:31:31.507Z,9.25
2023-02-23T09:36:33.470Z,9.37
2023-02-23T09:41:35.440Z,9.52
2023-02-23T09:46:53.868Z,9.70
2023-02-23T09:51:59.210Z,9.86
2023-02-23T09:57:04.961Z,9.96
2023-02-23T10:02:21.486Z,10.02
2023-02-23T10:07:53.004Z,10.14
2023-02-23T10:13:59.231Z,10.22
2023-02-23T10:19:08.105Z,10.29
2023-02-23T10:24:18.152Z,10.36
2023-02-23T10:29:39.550Z,10.52
2023-02-23T10:34:43.014Z,10.65
2023-02-23T10:39:45.329Z,10.73
2023-02-23T10:44:48.224Z,10.90
2023-02-23T10:49:52.495Z,11.03
2023-02-23T10:54:55.450Z,11.14
2023-02-23T11:00:07.132Z,11.25
2023-02-23T11:05:51.450Z,11.40
2023-02-23T11:11:02.420Z,11.62
2023-02-23T11:16:14.098Z,11.75
2023-02-23T11:21:27.136Z,11.85
2023-02-23T11:26:36.239Z,12.00
2023-02-23T11:31:40.872Z,12.16
2023-02-23T11:36:42.950Z,12.27
2023-02-23T11:41:44.768Z,12.32
2023-02-23T11:46:47.073Z,12.34
2023-02-23T11:51:52.317Z,12.32
2023-02-23T11:56:55.599Z,12.31
2023-02-23T12:02:19.272Z,12.26
2023-02-23T12:07:31.665Z,12.25
2023-02-23T12:12:51.112Z,12.20
2023-02-23T12:18:04.779Z,12.19
2023-02-23T12:23:12.586Z,12.21
2023-02-23T12:28:27.240Z,12.28
2023-02-23T12:33:39.406Z,12.35
2023-02-23T12:39:10.098Z,12.39
2023-02-23T12:44:34.583Z,12.43
2023-02-23T12:49:39.760Z,12.43
2023-02-23T12:54:44.036Z,12.44
2023-02-23T12:59:51.778Z,12.46
2023-02-23T13:05:27.098Z,12.48
2023-02-23T13:10:46.302Z,12.52
2023-02-23T13:15:59.393Z,12.56
2023-02-23T13:21:04.360Z,12.58
2023-02-23T13:26:10.986Z,12.54
2023-02-23T13:31:41.311Z,12.54
2023-02-23T13:36:46.012Z,12.51
2023-02-23T13:42:16.290Z,12.46
2023-02-23T13:47:36.476Z,12.39
2023-02-23T13:52:42.605Z,12.30
2023-02-23T13:57:44.416Z,12.25
2023-02-23T14:02:46.966Z,12.19
2023-02-23T14:08:04.740Z,12.17
2023-02-23T14:13:18.264Z,12.17
2023-02-23T14:18:26.305Z,12.14
2023-02-23T14:23:50.708Z,12.11
2023-02-23T14:29:26.020Z,12.06
2023-02-23T14:34:54.197Z,12.00
2023-02-23T14:40:02.005Z,11.96
2023-02-23T14:45:17.669Z,11.96
2023-02-23T14:50:31.492Z,11.90
2023-02-23T14:55:37.897Z,11.86
2023-02-23T15:00:42.668Z,11.83
2023-02-23T15:05:52.860Z,11.80
2023-02-23T15:11:13.626Z,11.78
2023-02-23T15:16:23.194Z,11.76
2023-02-23T15:21:25.164Z,11.74
2023-02-23T15:26:36.865Z,11.72
2023-02-23T15:31:41.102Z,11.66
2023-02-23T15:36:47.203Z,11.63
2023-02-23T15:41:50.007Z,11.62
2023-02-23T15:47:20.663Z,11.60
2023-02-23T15:52:25.099Z,11.55
2023-02-23T15:57:31.973Z,11.51
2023-02-23T16:02:36.878Z,11.46
2023-02-23T16:07:43.569Z,11.40
2023-02-23T16:12:49.919Z,11.36
2023-02-23T16:18:02.639Z,11.31
2023-02-23T16:23:06.774Z,11.28
2023-02-23T16:28:12.983Z,11.23
2023-02-23T16:33:24.350Z,11.20
2023-02-23T16:38:38.092Z,11.18
2023-02-23T16:43:39.945Z,11.13
2023-02-23T16:48:41.773Z,11.11
2023-02-23T16:53:44.792Z,11.08
2023-02-23T16:58:49.742Z,11.06
2023-02-23T17:03:54.069Z,11.04
2023-02-23T17:08:58.918Z,11.03
2023-02-23T17:14:01.036Z,11.02
2023-02-23T17:19:02.933Z,11.02
2023-02-23T17:24:05.120Z,11.02
2023-02-23T17:29:07.035Z,11.00
2023-02-23T17:34:08.977Z,11.00
2023-02-23T17:39:14.318Z,10.99
2023-02-23T17:44:16.138Z,10.99
2023-02-23T17:49:18.257Z,10.98
2023-02-23T17:54:20.264Z,10.99
2023-02-23T17:59:22.147Z,11.00
2023-02-23T18:04:24.344Z,11.01
2023-02-23T18:09:26.566Z,11.01
2023-02-23T18:14:28.721Z,10.99
2023-02-23T18:19:31.324Z,10.97
2023-02-23T18:24:33.625Z,10.95
2023-02-23T18:29:36.686Z,10.95
2023-02-23T18:34:38.585Z,10.92
2023-02-23T18:39:40.498Z,10.90
2023-02-23T18:44:42.672Z,10.89
2023-02-23T18:49:44.797Z,10.87
2023-02-23T18:54:48.851Z,10.86
2023-02-23T18:59:50.754Z,10.84
2023-02-23T19:04:52.554Z,10.83
2023-02-23T19:09:54.512Z,10.83
2023-02-23T19:14:59.740Z,10.83
2023-02-23T19:20:01.965Z,10.81
2023-02-23T19:25:04.063Z,10.80
2023-02-23T19:30:10.107Z,10.80
2023-02-23T19:35:14.973Z,10.78
2023-02-23T19:40:20.970Z,10.73
2023-02-23T19:45:24.959Z,10.70
2023-02-23T19:50:26.762Z,10.66
2023-02-23T19:55:28.529Z,10.61
2023-02-23T20:00:31.468Z,10.58
2023-02-23T20:05:42.454Z,10.55
2023-02-23T20:10:45.520Z,10.52
2023-02-23T20:15:47.425Z,10.52
2023-02-23T20:20:49.376Z,10.50
2023-02-23T20:25:52.615Z,10.50
2023-02-23T20:30:54.720Z,10.49
2023-02-23T20:35:57.441Z,10.47
2023-02-23T20:41:03.089Z,10.44
2023-02-23T20:46:06.394Z,10.43
2023-02-23T20:51:13.091Z,10.40
2023-02-23T20:56:17.871Z,10.37
2023-02-23T21:01:23.828Z,10.35
2023-02-23T21:06:27.875Z,10.34
2023-02-23T21:11:31.402Z,10.34
2023-02-23T21:16:33.313Z,10.35
2023-02-23T21:21:44.379Z,10.34
2023-02-23T21:26:46.663Z,10.35
2023-02-23T21:31:52.335Z,10.37
2023-02-23T21:36:59.370Z,10.39
2023-02-23T21:42:01.299Z,10.40
2023-02-23T21:47:07.147Z,10.39
2023-02-23T21:52:10.022Z,10.38
2023-02-23T21:57:11.873Z,10.37
2023-02-23T22:02:13.734Z,10.37
2023-02-23T22:07:17.000Z,10.35
2023-02-23T22:12:18.872Z,10.34
2023-02-23T22:17:20.804Z,10.33
2023-02-23T22:22:23.144Z,10.29
2023-02-23T22:27:25.091Z,10.23
2023-02-23T22:32:27.430Z,10.16
2023-02-23T22:37:31.695Z,10.13
2023-02-23T22:42:35.520Z,10.13
2023-02-23T22:47:37.696Z,10.09
2023-02-23T22:52:40.968Z,10.02
2023-02-23T22:57:43.166Z,9.95
2023-02-23T23:02:45.117Z,9.91
2023-02-23T23:07:47.729Z,9.89
2023-02-23T23:12:49.830Z,9.87
2023-02-23T23:17:51.719Z,9.87
2023-02-23T23:22:53.692Z,9.84
2023-02-23T23:27:55.825Z,9.78
2023-02-23T23:32:58.095Z,9.79
2023-02-23T23:38:03.158Z,9.77
2023-02-23T23:43:07.904Z,9.79
2023-02-23T23:48:09.941Z,9.76
2023-02-23T23:53:11.929Z,9.74
2023-02-23T23:58:18.450Z,9.73
